Time;durP1;ratioP1;P1;durP2;ratioP2;P2;SDS_P1;SDS_P2;PMS_P1;PMS_P2;Temp;Humidity;BMP_temperature;BMP_pressure;BME280_temperature;BME280_humidity;BME280_pressure;Samples;Min_cycle;Max_cycle;Signal;HPM_P1;HPM_P2
2023/03/03 00:01:17;;;;;;;91.30;34.35;;;;;;;;;;5051917;28;20536;-73
2023/03/03 00:03:43;;;;;;;82.25;33.22;;;;;;;;;;5051813;28;20107;-73
2023/03/03 00:06:10;;;;;;;84.07;34.17;;;;;;;;;;5051682;28;20112;-73
2023/03/03 00:08:36;;;;;;;75.93;33.17;;;;;;;;;;5051985;28;20108;-73
2023/03/03 00:11:05;;;;;;;92.28;32.05;;;;;;;;;;5051786;28;20055;-72
2023/03/03 00:13:31;;;;;;;81.07;33.13;;;;;;;;;;5051472;28;20441;-73
2023/03/03 00:16:17;;;;;;;83.25;33.53;;;;;;;;;;5051642;28;20098;-73
2023/03/03 00:18:45;;;;;;;81.38;33.38;;;;;;;;;;5047781;28;20494;-72
2023/03/03 00:21:24;;;;;;;70.13;32.47;;;;;;;;;;5051689;28;20029;-73
2023/03/03 00:23:50;;;;;;;96.18;35.72;;;;;;;;;;5051409;28;20044;-73
2023/03/03 00:26:26;;;;;;;95.60;31.67;;;;;;;;;;5051763;28;20021;-73
2023/03/03 00:28:53;;;;;;;80.05;30.65;;;;;;;;;;5052491;28;20032;-72
2023/03/03 00:31:21;;;;;;;83.25;33.08;;;;;;;;;;5052781;28;20017;-73
2023/03/03 00:33:53;;;;;;;68.15;31.70;;;;;;;;;;5052423;28;20021;-71
2023/03/03 00:36:38;;;;;;;70.43;31.45;;;;;;;;;;5052932;28;20013;-73
2023/03/03 00:39:26;;;;;;;66.45;31.73;;;;;;;;;;5052386;28;20021;-71
2023/03/03 00:41:52;;;;;;;76.15;32.28;;;;;;;;;;5051968;28;20025;-71
2023/03/03 00:44:33;;;;;;;265.98;32.97;;;;;;;;;;5052217;28;20394;-72
2023/03/03 00:47:11;;;;;;;144.75;32.63;;;;;;;;;;5052100;28;20033;-71
2023/03/03 00:49:37;;;;;;;102.50;31.27;;;;;;;;;;5052226;28;20536;-72
2023/03/03 00:52:06;;;;;;;58.45;29.73;;;;;;;;;;5051889;28;20025;-72
2023/03/03 00:54:32;;;;;;;106.88;32.97;;;;;;;;;;5052041;28;20372;-72
2023/03/03 00:56:58;;;;;;;91.82;34.85;;;;;;;;;;5052028;28;20025;-72
2023/03/03 00:59:24;;;;;;;68.47;32.20;;;;;;;;;;5051919;28;20029;-71
2023/03/03 01:01:50;;;;;;;253.88;32.10;;;;;;;;;;5044607;28;20052;-73
2023/03/03 01:04:16;;;;;;;56.22;29.73;;;;;;;;;;5051739;28;20143;-73
2023/03/03 01:06:42;;;;;;;63.30;32.33;;;;;;;;;;5051609;28;20025;-72
2023/03/03 01:09:08;;;;;;;68.32;32.72;;;;;;;;;;5051779;28;20097;-72
2023/03/03 01:11:34;;;;;;;69.47;32.15;;;;;;;;;;5051875;28;20408;-72
2023/03/03 01:14:00;;;;;;;83.88;32.83;;;;;;;;;;5051651;28;20021;-72
2023/03/03 01:16:26;;;;;;;61.15;31.33;;;;;;;;;;5051741;28;20524;-73
2023/03/03 01:18:52;;;;;;;56.20;30.48;;;;;;;;;;5051713;28;20032;-72
2023/03/03 01:21:18;;;;;;;94.05;34.22;;;;;;;;;;5051803;28;20107;-73
2023/03/03 01:23:44;;;;;;;77.25;32.97;;;;;;;;;;5051432;28;20100;-72
2023/03/03 01:26:10;;;;;;;68.15;32.17;;;;;;;;;;5052142;28;20040;-72
2023/03/03 01:28:36;;;;;;;61.83;31.70;;;;;;;;;;5051918;28;20029;-73
2023/03/03 01:31:03;;;;;;;67.32;32.42;;;;;;;;;;5051888;28;20459;-72
2023/03/03 01:33:30;;;;;;;100.85;32.65;;;;;;;;;;5051480;28;20021;-74
2023/03/03 01:35:56;;;;;;;68.57;32.47;;;;;;;;;;5052179;28;20087;-73
2023/03/03 01:38:22;;;;;;;78.35;30.20;;;;;;;;;;5051623;28;20510;-72
2023/03/03 01:40:53;;;;;;;66.80;30.42;;;;;;;;;;5051912;28;20471;-72
2023/03/03 01:43:19;;;;;;;79.45;28.33;;;;;;;;;;5052776;28;20053;-74
2023/03/03 01:45:48;;;;;;;46.47;27.50;;;;;;;;;;5052006;28;20132;-73
2023/03/03 01:48:19;;;;;;;54.15;28.50;;;;;;;;;;5051588;28;20021;-71
2023/03/03 01:50:48;;;;;;;53.15;30.27;;;;;;;;;;5052053;28;20017;-73
2023/03/03 01:53:34;;;;;;;54.70;30.55;;;;;;;;;;5053402;28;20036;-73
2023/03/03 01:56:01;;;;;;;49.38;29.02;;;;;;;;;;5050004;28;20036;-71
2023/03/03 01:58:29;;;;;;;48.03;28.48;;;;;;;;;;5051606;28;20033;-72
2023/03/03 02:00:58;;;;;;;45.47;27.67;;;;;;;;;;5051441;28;20056;-72
2023/03/03 02:03:24;;;;;;;47.65;27.50;;;;;;;;;;5051089;28;20423;-72
2023/03/03 02:05:51;;;;;;;48.70;28.08;;;;;;;;;;5051204;28;20032;-73
2023/03/03 02:08:21;;;;;;;47.20;26.38;;;;;;;;;;5051317;28;20029;-71
2023/03/03 02:10:47;;;;;;;43.53;25.95;;;;;;;;;;5051287;28;20470;-72
2023/03/03 02:13:14;;;;;;;74.53;25.98;;;;;;;;;;5052779;28;20539;-73
2023/03/03 02:15:40;;;;;;;110.53;26.17;;;;;;;;;;5054964;28;20017;-72
2023/03/03 02:18:12;;;;;;;42.25;26.70;;;;;;;;;;5055037;28;20172;-73
2023/03/03 02:20:44;;;;;;;36.70;23.55;;;;;;;;;;5054851;28;20029;-72
2023/03/03 02:23:17;;;;;;;39.25;25.35;;;;;;;;;;5054643;28;20449;-73
2023/03/03 02:25:49;;;;;;;44.88;26.95;;;;;;;;;;5054738;28;20431;-72
2023/03/03 02:28:15;;;;;;;45.33;26.92;;;;;;;;;;5054637;28;20034;-72
2023/03/03 02:30:41;;;;;;;48.05;26.75;;;;;;;;;;5054832;28;20025;-72
2023/03/03 02:33:07;;;;;;;47.15;26.75;;;;;;;;;;5054329;28;20104;-72
2023/03/03 02:35:35;;;;;;;80.07;26.98;;;;;;;;;;5054202;28;20021;-72
2023/03/03 02:38:20;;;;;;;185.13;26.42;;;;;;;;;;5053939;28;20039;-72
2023/03/03 02:40:54;;;;;;;44.75;27.25;;;;;;;;;;5054588;28;20025;-72
2023/03/03 02:43:22;;;;;;;73.50;29.70;;;;;;;;;;5054361;28;20033;-72
2023/03/03 02:45:48;;;;;;;58.20;26.80;;;;;;;;;;5054525;28;20033;-73
2023/03/03 02:48:14;;;;;;;113.38;27.60;;;;;;;;;;5054325;28;20029;-73
2023/03/03 02:50:40;;;;;;;66.57;29.08;;;;;;;;;;5054461;28;20467;-72
2023/03/03 02:53:06;;;;;;;50.88;28.10;;;;;;;;;;5054062;28;20026;-72
2023/03/03 02:55:32;;;;;;;49.55;27.95;;;;;;;;;;5054720;28;20452;-74
2023/03/03 02:57:58;;;;;;;53.53;28.40;;;;;;;;;;5054336;28;20025;-72
2023/03/03 03:00:24;;;;;;;53.08;28.73;;;;;;;;;;5059410;28;20101;-73
2023/03/03 03:02:50;;;;;;;50.95;29.50;;;;;;;;;;5056701;28;20025;-73
2023/03/03 03:05:16;;;;;;;51.92;29.67;;;;;;;;;;5054445;28;20021;-72
2023/03/03 03:07:42;;;;;;;56.65;28.92;;;;;;;;;;5052329;28;20036;-73
2023/03/03 03:10:08;;;;;;;57.40;29.15;;;;;;;;;;5049081;28;20115;-73
2023/03/03 03:12:34;;;;;;;49.47;28.77;;;;;;;;;;5048258;28;20032;-71
2023/03/03 03:15:00;;;;;;;49.63;28.50;;;;;;;;;;5057270;28;20013;-73
2023/03/03 03:17:26;;;;;;;55.25;29.63;;;;;;;;;;5049519;28;20021;-72
2023/03/03 03:19:52;;;;;;;53.58;30.27;;;;;;;;;;5049570;28;20060;-73
2023/03/03 03:22:18;;;;;;;52.30;27.17;;;;;;;;;;5046461;28;20969;-72
2023/03/03 03:24:44;;;;;;;50.63;29.80;;;;;;;;;;5054630;28;20079;-72
2023/03/03 03:27:10;;;;;;;53.92;28.70;;;;;;;;;;5049736;28;20502;-72
2023/03/03 03:29:36;;;;;;;47.60;28.23;;;;;;;;;;5049974;28;20036;-72
2023/03/03 03:32:02;;;;;;;49.15;27.73;;;;;;;;;;5050417;28;20017;-72
2023/03/03 03:34:28;;;;;;;56.85;28.10;;;;;;;;;;5058747;28;20505;-72
2023/03/03 03:36:54;;;;;;;51.17;29.48;;;;;;;;;;5050263;28;20021;-72
2023/03/03 03:39:20;;;;;;;54.78;27.20;;;;;;;;;;5050405;28;20021;-72
2023/03/03 03:41:46;;;;;;;48.55;27.95;;;;;;;;;;5050097;28;20032;-72
2023/03/03 03:44:12;;;;;;;49.08;28.00;;;;;;;;;;5054721;28;20028;-72
2023/03/03 03:46:38;;;;;;;50.53;27.42;;;;;;;;;;5048850;28;20026;-72
2023/03/03 03:49:04;;;;;;;46.67;24.63;;;;;;;;;;5050739;28;20078;-71
2023/03/03 03:51:30;;;;;;;45.00;26.30;;;;;;;;;;5052922;28;20386;-71
2023/03/03 03:53:56;;;;;;;41.80;25.42;;;;;;;;;;5055395;28;20032;-73
2023/03/03 03:56:22;;;;;;;48.30;26.27;;;;;;;;;;5049118;28;20024;-72
2023/03/03 03:58:48;;;;;;;50.22;28.02;;;;;;;;;;5051696;28;20029;-72
2023/03/03 04:01:14;;;;;;;45.55;27.05;;;;;;;;;;5047783;28;20107;-72
2023/03/03 04:03:40;;;;;;;49.17;27.58;;;;;;;;;;5052769;28;20029;-71
2023/03/03 04:06:06;;;;;;;48.40;27.92;;;;;;;;;;5052886;28;20032;-75
2023/03/03 04:08:32;;;;;;;65.40;26.98;;;;;;;;;;5052904;28;20098;-74
2023/03/03 04:10:58;;;;;;;51.95;27.42;;;;;;;;;;5053232;28;20023;-73
2023/03/03 04:13:27;;;;;;;47.50;27.08;;;;;;;;;;5052535;28;20448;-73
2023/03/03 04:15:53;;;;;;;60.20;26.17;;;;;;;;;;5053115;28;20079;-73
2023/03/03 04:18:19;;;;;;;46.08;25.58;;;;;;;;;;5053408;28;20029;-74
2023/03/03 04:20:45;;;;;;;47.10;26.75;;;;;;;;;;5054031;28;20068;-72
2023/03/03 04:23:11;;;;;;;130.50;24.25;;;;;;;;;;5052512;28;20056;-72
2023/03/03 04:25:37;;;;;;;43.38;25.25;;;;;;;;;;5054418;28;20017;-75
2023/03/03 04:28:03;;;;;;;51.90;26.13;;;;;;;;;;5044326;28;20033;-75
2023/03/03 04:30:30;;;;;;;45.55;26.05;;;;;;;;;;5057656;28;20110;-73
2023/03/03 04:32:56;;;;;;;41.13;23.55;;;;;;;;;;5052193;28;20021;-74
2023/03/03 04:35:22;;;;;;;41.17;25.42;;;;;;;;;;5052676;28;20087;-74
2023/03/03 04:37:48;;;;;;;42.05;23.98;;;;;;;;;;5052865;28;20025;-71
2023/03/03 04:40:15;;;;;;;46.75;23.92;;;;;;;;;;5052461;28;20057;-71
2023/03/03 04:42:41;;;;;;;64.00;25.05;;;;;;;;;;5052150;28;20095;-70
2023/03/03 04:45:07;;;;;;;54.22;23.85;;;;;;;;;;5052302;28;20047;-71
2023/03/03 04:47:33;;;;;;;80.55;25.48;;;;;;;;;;5052592;28;20025;-71
2023/03/03 04:49:59;;;;;;;49.70;25.10;;;;;;;;;;5052407;28;20032;-71
2023/03/03 04:52:25;;;;;;;46.15;25.70;;;;;;;;;;5051853;28;20017;-70
2023/03/03 04:54:51;;;;;;;42.53;25.02;;;;;;;;;;5052094;28;20056;-71
2023/03/03 04:57:17;;;;;;;50.03;26.50;;;;;;;;;;5053277;28;20021;-72
2023/03/03 04:59:43;;;;;;;40.92;24.58;;;;;;;;;;5056107;28;20482;-72
2023/03/03 05:02:09;;;;;;;51.75;25.90;;;;;;;;;;5052586;28;20079;-73
2023/03/03 05:04:35;;;;;;;77.95;26.90;;;;;;;;;;5052113;28;20028;-74
2023/03/03 05:07:01;;;;;;;44.75;26.40;;;;;;;;;;5051978;28;20041;-72
2023/03/03 05:09:27;;;;;;;39.28;23.17;;;;;;;;;;5051617;28;20544;-71
2023/03/03 05:11:53;;;;;;;52.40;24.00;;;;;;;;;;5051463;28;20047;-71
2023/03/03 05:14:20;;;;;;;49.05;23.90;;;;;;;;;;5051982;28;20048;-71
2023/03/03 05:16:46;;;;;;;46.13;24.75;;;;;;;;;;5051673;28;20021;-70
2023/03/03 05:19:12;;;;;;;47.17;24.60;;;;;;;;;;5051660;28;20032;-71
2023/03/03 05:21:41;;;;;;;41.70;24.42;;;;;;;;;;5051531;28;20538;-71
2023/03/03 05:24:08;;;;;;;43.30;24.83;;;;;;;;;;5051521;28;20032;-73
2023/03/03 05:26:34;;;;;;;43.65;25.25;;;;;;;;;;5051129;28;20025;-72
2023/03/03 05:28:59;;;;;;;43.72;23.80;;;;;;;;;;5051536;28;20036;-72
2023/03/03 05:31:26;;;;;;;42.70;24.67;;;;;;;;;;5051508;28;20047;-71
2023/03/03 05:33:52;;;;;;;48.20;26.40;;;;;;;;;;5054156;28;20036;-71
2023/03/03 05:36:18;;;;;;;52.28;25.65;;;;;;;;;;5055753;28;20032;-72
2023/03/03 05:38:44;;;;;;;48.53;25.35;;;;;;;;;;5054147;28;20029;-72
2023/03/03 05:41:10;;;;;;;39.80;23.42;;;;;;;;;;5054856;28;20040;-71
2023/03/03 05:43:36;;;;;;;41.28;24.13;;;;;;;;;;5053710;28;20037;-71
2023/03/03 05:46:03;;;;;;;44.35;22.67;;;;;;;;;;5054793;28;20025;-72
2023/03/03 05:48:29;;;;;;;44.45;23.05;;;;;;;;;;5057095;28;20028;-72
2023/03/03 05:50:58;;;;;;;46.28;22.02;;;;;;;;;;5055043;28;20025;-74
2023/03/03 05:53:24;;;;;;;40.08;22.42;;;;;;;;;;5059192;28;20074;-77
2023/03/03 05:55:50;;;;;;;36.63;21.33;;;;;;;;;;5059383;28;20497;-75
2023/03/03 05:58:16;;;;;;;56.45;21.45;;;;;;;;;;5058820;28;20040;-73
2023/03/03 06:00:42;;;;;;;36.95;22.42;;;;;;;;;;5059116;28;20033;-74
2023/03/03 06:03:08;;;;;;;55.30;22.80;;;;;;;;;;5060693;28;20105;-73
2023/03/03 06:05:34;;;;;;;33.67;20.95;;;;;;;;;;5060115;28;20040;-74
2023/03/03 06:08:00;;;;;;;34.67;21.63;;;;;;;;;;5061802;28;20029;-75
2023/03/03 06:10:26;;;;;;;47.00;22.80;;;;;;;;;;5062812;28;20497;-74
2023/03/03 06:12:53;;;;;;;40.20;23.65;;;;;;;;;;5058533;28;20429;-72
2023/03/03 06:15:19;;;;;;;55.70;23.50;;;;;;;;;;5055126;28;20056;-72
2023/03/03 06:17:45;;;;;;;43.88;23.30;;;;;;;;;;5055055;28;20067;-72
2023/03/03 06:20:11;;;;;;;37.55;22.38;;;;;;;;;;5055409;28;20033;-73
2023/03/03 06:22:37;;;;;;;37.15;22.63;;;;;;;;;;5054422;28;20478;-72
2023/03/03 06:25:03;;;;;;;34.40;20.63;;;;;;;;;;5054703;28;20036;-73
2023/03/03 06:27:30;;;;;;;42.03;21.95;;;;;;;;;;5054945;28;20079;-73
2023/03/03 06:29:56;;;;;;;34.53;21.10;;;;;;;;;;5055112;28;20536;-75
2023/03/03 06:32:22;;;;;;;47.05;21.35;;;;;;;;;;5051570;28;20025;-72
2023/03/03 06:34:47;;;;;;;40.78;20.30;;;;;;;;;;5057075;28;20017;-73
2023/03/03 06:37:13;;;;;;;59.03;22.13;;;;;;;;;;5057270;28;20390;-72
2023/03/03 06:39:39;;;;;;;47.05;21.90;;;;;;;;;;5055032;28;20032;-72
2023/03/03 06:42:06;;;;;;;33.60;20.80;;;;;;;;;;5049354;28;20540;-75
2023/03/03 06:44:32;;;;;;;34.70;20.98;;;;;;;;;;5054292;28;20045;-73
2023/03/03 06:46:58;;;;;;;39.22;23.35;;;;;;;;;;5061893;28;20096;-75
2023/03/03 06:49:24;;;;;;;34.05;21.40;;;;;;;;;;5063423;28;20029;-75
2023/03/03 06:51:50;;;;;;;39.95;21.55;;;;;;;;;;5059156;28;20029;-74
2023/03/03 06:54:17;;;;;;;44.88;21.67;;;;;;;;;;5050292;28;20466;-73
2023/03/03 06:56:44;;;;;;;40.22;21.30;;;;;;;;;;5055364;28;20087;-78
2023/03/03 06:59:11;;;;;;;38.67;21.67;;;;;;;;;;5053787;28;20057;-74
2023/03/03 07:01:38;;;;;;;34.55;20.73;;;;;;;;;;5053056;28;20036;-74
2023/03/03 07:04:11;;;;;;;30.73;19.30;;;;;;;;;;5054872;28;20029;-72
2023/03/03 07:06:37;;;;;;;32.35;18.55;;;;;;;;;;5050128;28;20029;-73
2023/03/03 07:09:07;;;;;;;31.95;18.80;;;;;;;;;;5053669;28;20169;-71
2023/03/03 07:11:36;;;;;;;34.13;20.73;;;;;;;;;;5053935;28;20109;-72
2023/03/03 07:14:01;;;;;;;63.42;19.70;;;;;;;;;;5053536;28;20021;-74
2023/03/03 07:16:28;;;;;;;31.98;18.90;;;;;;;;;;5053942;28;20474;-74
2023/03/03 07:18:54;;;;;;;30.90;19.17;;;;;;;;;;5053568;28;20103;-72
2023/03/03 07:21:31;;;;;;;36.33;20.25;;;;;;;;;;5052716;28;20207;-72
2023/03/03 07:23:57;;;;;;;27.05;17.35;;;;;;;;;;5052767;28;20487;-73
2023/03/03 07:26:27;;;;;;;30.08;18.40;;;;;;;;;;5054465;28;20053;-74
2023/03/03 07:28:54;;;;;;;32.72;18.60;;;;;;;;;;5053855;28;20021;-74
2023/03/03 07:31:30;;;;;;;27.58;17.48;;;;;;;;;;5054051;28;20025;-73
2023/03/03 07:33:56;;;;;;;30.90;19.15;;;;;;;;;;5053775;28;20017;-72
2023/03/03 07:36:27;;;;;;;31.92;19.25;;;;;;;;;;5053857;28;20502;-73
2023/03/03 07:38:54;;;;;;;49.78;21.48;;;;;;;;;;5054335;28;20029;-73
2023/03/03 07:41:22;;;;;;;46.58;19.27;;;;;;;;;;5054792;28;20155;-73
2023/03/03 07:44:01;;;;;;;37.20;19.10;;;;;;;;;;5053599;28;20025;-71
2023/03/03 07:46:26;;;;;;;91.63;18.17;;;;;;;;;;5053230;28;20044;-71
2023/03/03 07:48:52;;;;;;;33.95;19.00;;;;;;;;;;5053533;28;20402;-71
2023/03/03 07:51:24;;;;;;;32.83;19.10;;;;;;;;;;5054853;28;20021;-72
2023/03/03 07:53:51;;;;;;;92.00;18.77;;;;;;;;;;5053480;28;20017;-74
2023/03/03 07:56:23;;;;;;;63.67;23.83;;;;;;;;;;5053671;28;20025;-73
2023/03/03 07:58:49;;;;;;;50.13;23.35;;;;;;;;;;5051530;28;20114;-73
2023/03/03 08:01:18;;;;;;;29.55;18.30;;;;;;;;;;5053615;28;20033;-73
2023/03/03 08:03:45;;;;;;;33.38;16.60;;;;;;;;;;5053154;28;20029;-72
2023/03/03 08:06:28;;;;;;;34.75;17.05;;;;;;;;;;5053478;28;20039;-73
2023/03/03 08:08:54;;;;;;;87.70;17.10;;;;;;;;;;5053562;28;20021;-73
2023/03/03 08:11:20;;;;;;;32.05;16.83;;;;;;;;;;5054253;28;20272;-74
2023/03/03 08:13:46;;;;;;;36.28;15.68;;;;;;;;;;5052875;28;20037;-77
2023/03/03 08:16:12;;;;;;;25.65;15.60;;;;;;;;;;5052302;28;20140;-75
2023/03/03 08:18:46;;;;;;;25.27;15.38;;;;;;;;;;5052093;28;20493;-75
2023/03/03 08:21:15;;;;;;;30.38;15.50;;;;;;;;;;5051994;28;20603;-73
2023/03/03 08:23:41;;;;;;;25.55;15.75;;;;;;;;;;5054859;28;20462;-73
2023/03/03 08:26:08;;;;;;;24.85;14.85;;;;;;;;;;5056198;28;20394;-72
2023/03/03 08:28:34;;;;;;;28.42;15.25;;;;;;;;;;5055921;28;20128;-72
2023/03/03 08:31:01;;;;;;;21.13;13.65;;;;;;;;;;5052426;28;20025;-71
2023/03/03 08:33:27;;;;;;;29.58;14.25;;;;;;;;;;5051152;28;20025;-72
2023/03/03 08:35:53;;;;;;;22.33;13.25;;;;;;;;;;5052637;28;20067;-73
2023/03/03 08:38:20;;;;;;;26.65;12.70;;;;;;;;;;5051799;28;20029;-73
2023/03/03 08:40:47;;;;;;;27.27;13.65;;;;;;;;;;5052156;28;20029;-73
2023/03/03 08:43:16;;;;;;;20.98;11.23;;;;;;;;;;5051235;28;20557;-73
2023/03/03 08:45:43;;;;;;;25.25;11.68;;;;;;;;;;5046776;28;20155;-72
2023/03/03 08:48:09;;;;;;;16.95;9.98;;;;;;;;;;5042262;28;20087;-72
2023/03/03 08:50:37;;;;;;;17.65;10.52;;;;;;;;;;5043005;28;20115;-72
2023/03/03 08:53:03;;;;;;;13.98;9.23;;;;;;;;;;5046326;28;20024;-71
2023/03/03 08:55:29;;;;;;;20.58;9.98;;;;;;;;;;5053354;28;20100;-72
2023/03/03 08:57:55;;;;;;;28.33;10.60;;;;;;;;;;5044870;28;20493;-71
2023/03/03 09:00:21;;;;;;;16.40;9.95;;;;;;;;;;5043132;28;20155;-71
2023/03/03 09:02:49;;;;;;;17.88;10.05;;;;;;;;;;5046509;28;20482;-71
2023/03/03 09:05:16;;;;;;;24.20;10.35;;;;;;;;;;5050912;28;20073;-70
2023/03/03 09:07:42;;;;;;;16.67;9.00;;;;;;;;;;5047605;28;20361;-70
2023/03/03 09:10:09;;;;;;;15.13;9.30;;;;;;;;;;5044086;28;20143;-71
2023/03/03 09:12:40;;;;;;;17.27;9.43;;;;;;;;;;5044184;28;20498;-72
2023/03/03 09:15:18;;;;;;;14.98;8.95;;;;;;;;;;5049251;28;20036;-72
2023/03/03 09:17:43;;;;;;;56.83;26.33;;;;;;;;;;5047525;28;20029;-72
2023/03/03 09:20:30;;;;;;;19.48;11.07;;;;;;;;;;5044433;28;20021;-72
2023/03/03 09:22:57;;;;;;;33.90;17.05;;;;;;;;;;5038733;28;20494;-72
2023/03/03 09:25:36;;;;;;;16.73;9.73;;;;;;;;;;5052117;28;20032;-73
2023/03/03 09:28:03;;;;;;;23.73;11.32;;;;;;;;;;5044197;28;20040;-74
2023/03/03 09:30:37;;;;;;;24.63;12.18;;;;;;;;;;5045315;28;20025;-74
2023/03/03 09:33:19;;;;;;;27.20;11.82;;;;;;;;;;5048369;28;20102;-73
2023/03/03 09:35:47;;;;;;;23.70;10.80;;;;;;;;;;5050673;28;20025;-72
2023/03/03 09:38:20;;;;;;;54.75;10.93;;;;;;;;;;5046177;28;20566;-72
2023/03/03 09:40:53;;;;;;;28.67;11.43;;;;;;;;;;5047550;28;20494;-72
2023/03/03 09:43:36;;;;;;;25.80;11.07;;;;;;;;;;5047876;28;20545;-71
2023/03/03 09:46:25;;;;;;;20.95;10.98;;;;;;;;;;5048717;28;20116;-73
2023/03/03 09:49:00;;;;;;;33.90;17.25;;;;;;;;;;5045783;28;20052;-73
2023/03/03 09:51:32;;;;;;;21.65;11.40;;;;;;;;;;5049060;28;20400;-71
2023/03/03 09:54:11;;;;;;;21.05;11.40;;;;;;;;;;5049186;28;20017;-73
2023/03/03 09:56:46;;;;;;;22.83;11.85;;;;;;;;;;5050483;28;20029;-73
2023/03/03 09:59:21;;;;;;;21.48;11.60;;;;;;;;;;5049159;28;20167;-74
2023/03/03 10:02:14;;;;;;;36.72;13.57;;;;;;;;;;5050327;28;20025;-72
2023/03/03 10:04:40;;;;;;;23.58;10.93;;;;;;;;;;5051437;28;20082;-71
2023/03/03 10:07:06;;;;;;;25.33;12.13;;;;;;;;;;5050976;28;20029;-73
2023/03/03 10:09:32;;;;;;;39.67;13.40;;;;;;;;;;5051443;28;20128;-73
2023/03/03 10:12:10;;;;;;;29.13;13.18;;;;;;;;;;5051265;28;20092;-71
2023/03/03 10:14:55;;;;;;;28.67;12.90;;;;;;;;;;5051596;28;20021;-72
2023/03/03 10:17:39;;;;;;;24.08;13.05;;;;;;;;;;5050954;28;20099;-74
2023/03/03 10:20:12;;;;;;;28.38;14.38;;;;;;;;;;5051129;28;20028;-72
2023/03/03 10:22:45;;;;;;;24.58;13.27;;;;;;;;;;5050819;28;20376;-72
2023/03/03 10:25:16;;;;;;;21.73;12.07;;;;;;;;;;5050982;28;20025;-73
2023/03/03 10:28:12;;;;;;;27.52;11.70;;;;;;;;;;5051081;28;20063;-73
2023/03/03 10:30:39;;;;;;;;;;;;;;;;;;5031520;28;20044;-74
2023/03/03 10:33:08;;;;;;;23.30;10.80;;;;;;;;;;5050630;28;19908;-72
2023/03/03 10:35:52;;;;;;;20.77;11.85;;;;;;;;;;5054755;28;20444;-74
2023/03/03 10:38:18;;;;;;;26.05;12.65;;;;;;;;;;5054687;28;20470;-73
2023/03/03 10:40:54;;;;;;;23.73;12.15;;;;;;;;;;5054701;28;20036;-76
2023/03/03 10:43:39;;;;;;;28.60;14.40;;;;;;;;;;5054220;28;20450;-74
2023/03/03 10:46:11;;;;;;;33.65;15.00;;;;;;;;;;5055315;28;20060;-73
2023/03/03 10:48:46;;;;;;;26.45;16.00;;;;;;;;;;5055288;28;20100;-74
2023/03/03 10:51:12;;;;;;;;;;;;;;;;;;5054883;28;20028;-75
2023/03/03 10:53:48;;;;;;;31.17;17.30;;;;;;;;;;5054936;28;20263;-74
2023/03/03 10:56:33;;;;;;;30.33;17.52;;;;;;;;;;5054384;28;20025;-73
2023/03/03 10:59:08;;;;;;;36.20;18.55;;;;;;;;;;5054208;28;20029;-73
2023/03/03 11:01:53;;;;;;;36.83;19.15;;;;;;;;;;5054191;28;20297;-75
2023/03/03 11:04:30;;;;;;;32.80;18.30;;;;;;;;;;5054399;28;20506;-72
2023/03/03 11:07:02;;;;;;;37.28;20.42;;;;;;;;;;5054125;28;20096;-72
2023/03/03 11:09:40;;;;;;;30.60;17.40;;;;;;;;;;5053891;28;20029;-72
2023/03/03 11:12:25;;;;;;;34.55;18.02;;;;;;;;;;5054207;28;20029;-73
2023/03/03 11:15:11;;;;;;;30.52;17.40;;;;;;;;;;5055934;28;20028;-74
2023/03/03 11:17:41;;;;;;;36.17;17.42;;;;;;;;;;5056666;28;20029;-71
2023/03/03 11:20:28;;;;;;;35.30;16.58;;;;;;;;;;5054926;28;20045;-73
2023/03/03 11:22:57;;;;;;;28.73;16.42;;;;;;;;;;5054584;28;20053;-72
2023/03/03 11:25:23;;;;;;;30.95;16.60;;;;;;;;;;5053976;28;20112;-72
2023/03/03 11:27:58;;;;;;;31.00;16.55;;;;;;;;;;5053642;28;20096;-72
2023/03/03 11:30:28;;;;;;;34.10;16.77;;;;;;;;;;5053888;28;20026;-72
2023/03/03 11:32:54;;;;;;;35.40;17.85;;;;;;;;;;5053352;28;20451;-73
2023/03/03 11:35:30;;;;;;;40.90;19.25;;;;;;;;;;5053406;28;20029;-73
2023/03/03 11:38:19;;;;;;;42.47;20.17;;;;;;;;;;5053481;28;20098;-72
2023/03/03 11:40:44;;;;;;;40.40;19.67;;;;;;;;;;5053581;28;20091;-72
2023/03/03 11:43:21;;;;;;;52.08;21.27;;;;;;;;;;5053091;28;20482;-74
2023/03/03 11:45:49;;;;;;;39.63;19.05;;;;;;;;;;5052664;28;20029;-73
2023/03/03 11:48:30;;;;;;;41.63;19.40;;;;;;;;;;5053258;28;20382;-71
2023/03/03 11:51:06;;;;;;;55.85;19.63;;;;;;;;;;5053087;28;20071;-72
2023/03/03 11:53:41;;;;;;;37.53;18.23;;;;;;;;;;5052921;28;20086;-75
2023/03/03 11:56:25;;;;;;;46.97;19.45;;;;;;;;;;5047311;28;20030;-72
2023/03/03 11:59:09;;;;;;;38.20;18.30;;;;;;;;;;5044592;28;20029;-74
2023/03/03 12:01:46;;;;;;;40.22;18.45;;;;;;;;;;5047966;28;20371;-74
2023/03/03 12:04:14;;;;;;;39.42;18.77;;;;;;;;;;5047083;28;20112;-74
2023/03/03 12:06:45;;;;;;;44.70;19.08;;;;;;;;;;5046896;28;20029;-75
2023/03/03 12:09:27;;;;;;;44.00;20.13;;;;;;;;;;5046973;28;20029;-75
2023/03/03 12:11:56;;;;;;;48.63;18.52;;;;;;;;;;5044629;28;20017;-74
2023/03/03 12:14:29;;;;;;;40.72;17.85;;;;;;;;;;5045304;28;20026;-74
2023/03/03 12:17:05;;;;;;;34.65;14.57;;;;;;;;;;5045743;28;20425;-74
2023/03/03 12:20:10;;;;;;;37.88;15.02;;;;;;;;;;5046202;28;20504;-74
2023/03/03 12:22:48;;;;;;;33.92;13.93;;;;;;;;;;5004542;28;20085;-74
2023/03/03 12:25:16;;;;;;;33.78;13.02;;;;;;;;;;5003245;28;20026;-74
2023/03/03 12:28:01;;;;;;;32.63;12.02;;;;;;;;;;5027896;28;20113;-77
2023/03/03 12:30:27;;;;;;;37.33;13.40;;;;;;;;;;5044009;28;20819;-76
2023/03/03 12:33:03;;;;;;;37.65;12.18;;;;;;;;;;5044731;28;20029;-75
2023/03/03 12:35:40;;;;;;;30.00;12.57;;;;;;;;;;5044955;28;20080;-73
2023/03/03 12:38:06;;;;;;;32.22;10.88;;;;;;;;;;5045231;28;20025;-74
2023/03/03 12:40:38;;;;;;;27.88;10.40;;;;;;;;;;5045459;28;20032;-74
2023/03/03 12:43:04;;;;;;;24.55;9.77;;;;;;;;;;5038594;28;20025;-74
2023/03/03 12:45:30;;;;;;;27.52;9.70;;;;;;;;;;5043477;28;20056;-75
2023/03/03 12:48:01;;;;;;;22.20;8.35;;;;;;;;;;5055297;28;20096;-74
2023/03/03 12:50:27;;;;;;;23.95;8.98;;;;;;;;;;5049182;28;20033;-75
2023/03/03 12:52:52;;;;;;;23.75;9.23;;;;;;;;;;5044290;28;20024;-75
2023/03/03 12:55:23;;;;;;;19.33;6.00;;;;;;;;;;5041600;28;20036;-75
2023/03/03 12:57:58;;;;;;;19.98;5.80;;;;;;;;;;5045212;28;20475;-75
2023/03/03 13:00:30;;;;;;;16.10;5.05;;;;;;;;;;5042330;28;20033;-73
2023/03/03 13:03:05;;;;;;;10.45;4.40;;;;;;;;;;5043808;28;20025;-73
2023/03/03 13:05:31;;;;;;;14.48;4.38;;;;;;;;;;5045287;28;20026;-73
2023/03/03 13:08:09;;;;;;;17.05;4.60;;;;;;;;;;5043794;28;20024;-74
2023/03/03 13:10:45;;;;;;;13.60;4.50;;;;;;;;;;5045282;28;20509;-73
2023/03/03 13:13:16;;;;;;;22.23;6.60;;;;;;;;;;5045973;28;20021;-75
2023/03/03 13:15:54;;;;;;;15.88;5.03;;;;;;;;;;5042532;28;20033;-74
2023/03/03 13:18:28;;;;;;;13.07;6.18;;;;;;;;;;5042827;28;20100;-75
2023/03/03 13:21:07;;;;;;;13.77;4.35;;;;;;;;;;5047399;28;20028;-78
2023/03/03 13:23:39;;;;;;;8.10;3.63;;;;;;;;;;5043359;28;20021;-73
2023/03/03 13:26:11;;;;;;;12.02;3.53;;;;;;;;;;5051884;28;20028;-75
2023/03/03 13:28:42;;;;;;;15.55;4.65;;;;;;;;;;5051341;28;20378;-73
2023/03/03 13:31:14;;;;;;;10.10;2.70;;;;;;;;;;5051683;28;20088;-74
2023/03/03 13:33:48;;;;;;;12.52;2.60;;;;;;;;;;5051817;28;20383;-74
2023/03/03 13:36:16;;;;;;;9.68;2.50;;;;;;;;;;5051357;28;20028;-74
2023/03/03 13:38:45;;;;;;;7.53;1.95;;;;;;;;;;5052766;28;20552;-73
2023/03/03 13:41:11;;;;;;;12.52;2.15;;;;;;;;;;5052846;28;20033;-72
2023/03/03 13:43:42;;;;;;;14.95;2.20;;;;;;;;;;5052532;28;20036;-75
2023/03/03 13:46:15;;;;;;;13.10;2.15;;;;;;;;;;5052029;28;20040;-72
2023/03/03 13:48:52;;;;;;;11.88;2.20;;;;;;;;;;5052469;28;20025;-74
2023/03/03 13:51:30;;;;;;;9.10;1.85;;;;;;;;;;5050464;28;20049;-72
2023/03/03 13:54:14;;;;;;;13.45;1.75;;;;;;;;;;5049052;28;20021;-72
2023/03/03 13:56:59;;;;;;;9.30;1.85;;;;;;;;;;5050521;28;20108;-73
2023/03/03 13:59:34;;;;;;;8.73;1.70;;;;;;;;;;5049538;28;20104;-74
2023/03/03 14:02:03;;;;;;;5.60;1.90;;;;;;;;;;5046150;28;20049;-75
2023/03/03 14:04:35;;;;;;;8.43;1.85;;;;;;;;;;5043645;28;20025;-74
2023/03/03 14:07:13;;;;;;;8.25;1.92;;;;;;;;;;5050145;28;20032;-74
2023/03/03 14:09:45;;;;;;;19.23;5.85;;;;;;;;;;5053553;28;20032;-76
2023/03/03 14:12:11;;;;;;;14.77;1.92;;;;;;;;;;5051041;28;20482;-73
2023/03/03 14:14:40;;;;;;;9.82;1.85;;;;;;;;;;5054754;28;20134;-74
2023/03/03 14:17:20;;;;;;;15.18;2.05;;;;;;;;;;5054928;28;20119;-75
2023/03/03 14:19:59;;;;;;;16.48;1.83;;;;;;;;;;5054616;28;20021;-74
2023/03/03 14:22:34;;;;;;;14.68;2.85;;;;;;;;;;5054602;28;20033;-72
2023/03/03 14:25:05;;;;;;;13.35;2.70;;;;;;;;;;5056442;28;20462;-74
2023/03/03 14:27:34;;;;;;;13.32;2.25;;;;;;;;;;5053201;28;20032;-73
2023/03/03 14:30:20;;;;;;;18.65;2.25;;;;;;;;;;5054773;28;20087;-72
2023/03/03 14:32:58;;;;;;;14.70;2.80;;;;;;;;;;5053180;28;20390;-74
2023/03/03 14:35:29;;;;;;;8.98;1.90;;;;;;;;;;5054979;28;20322;-73